sensor_id;sensor_type;location;lat;lon;timestamp;P1;durP1;ratioP1;P2;durP2;ratioP2
30020;SDS011;16861;52.294;7.760;2022-12-13T00:00:53;51.30;;;25.10;;
30020;SDS011;16861;52.294;7.760;2022-12-13T00:03:20;52.38;;;26.13;;
30020;SDS011;16861;52.294;7.760;2022-12-13T00:05:46;58.25;;;26.48;;
30020;SDS011;16861;52.294;7.760;2022-12-13T00:08:12;54.90;;;26.02;;
30020;SDS011;16861;52.294;7.760;2022-12-13T00:10:39;50.30;;;24.88;;
30020;SDS011;16861;52.294;7.760;2022-12-13T00:13:05;52.90;;;26.17;;
30020;SDS011;16861;52.294;7.760;2022-12-13T00:15:31;55.58;;;27.25;;
30020;SDS011;16861;52.294;7.760;2022-12-13T00:17:58;53.10;;;25.95;;
30020;SDS011;16861;52.294;7.760;2022-12-13T00:20:24;54.72;;;25.23;;
30020;SDS011;16861;52.294;7.760;2022-12-13T00:22:50;54.35;;;25.63;;
30020;SDS011;16861;52.294;7.760;2022-12-13T00:25:17;55.97;;;26.40;;
30020;SDS011;16861;52.294;7.760;2022-12-13T00:27:46;52.30;;;25.45;;
30020;SDS011;16861;52.294;7.760;2022-12-13T00:30:12;48.85;;;24.20;;
30020;SDS011;16861;52.294;7.760;2022-12-13T00:32:39;52.53;;;24.33;;
30020;SDS011;16861;52.294;7.760;2022-12-13T00:35:05;55.88;;;24.63;;
30020;SDS011;16861;52.294;7.760;2022-12-13T00:37:31;50.33;;;24.52;;
30020;SDS011;16861;52.294;7.760;2022-12-13T00:39:58;50.22;;;25.42;;
30020;SDS011;16861;52.294;7.760;2022-12-13T00:42:24;53.15;;;24.90;;
30020;SDS011;16861;52.294;7.760;2022-12-13T00:44:50;49.78;;;24.13;;
30020;SDS011;16861;52.294;7.760;2022-12-13T00:47:17;49.85;;;24.90;;
30020;SDS011;16861;52.294;7.760;2022-12-13T00:49:45;51.22;;;24.80;;
30020;SDS011;16861;52.294;7.760;2022-12-13T00:52:12;54.17;;;25.27;;
30020;SDS011;16861;52.294;7.760;2022-12-13T00:54:38;49.92;;;25.35;;
30020;SDS011;16861;52.294;7.760;2022-12-13T00:57:04;52.13;;;24.35;;
30020;SDS011;16861;52.294;7.760;2022-12-13T00:59:31;48.60;;;23.15;;
30020;SDS011;16861;52.294;7.760;2022-12-13T01:01:57;47.35;;;22.70;;
30020;SDS011;16861;52.294;7.760;2022-12-13T01:04:23;44.25;;;22.38;;
30020;SDS011;16861;52.294;7.760;2022-12-13T01:06:50;47.55;;;24.13;;
30020;SDS011;16861;52.294;7.760;2022-12-13T01:09:20;52.38;;;23.70;;
30020;SDS011;16861;52.294;7.760;2022-12-13T01:11:55;48.78;;;22.77;;
30020;SDS011;16861;52.294;7.760;2022-12-13T01:14:23;47.70;;;22.23;;
30020;SDS011;16861;52.294;7.760;2022-12-13T01:16:49;47.97;;;22.55;;
30020;SDS011;16861;52.294;7.760;2022-12-13T01:19:16;46.50;;;24.23;;
30020;SDS011;16861;52.294;7.760;2022-12-13T01:21:42;49.40;;;23.75;;
30020;SDS011;16861;52.294;7.760;2022-12-13T01:24:09;46.47;;;23.15;;
30020;SDS011;16861;52.294;7.760;2022-12-13T01:26:36;48.38;;;23.13;;
30020;SDS011;16861;52.294;7.760;2022-12-13T01:29:02;47.00;;;23.08;;
30020;SDS011;16861;52.294;7.760;2022-12-13T01:31:30;54.47;;;25.48;;
30020;SDS011;16861;52.294;7.760;2022-12-13T01:33:57;47.22;;;23.63;;
30020;SDS011;16861;52.294;7.760;2022-12-13T01:36:24;47.88;;;24.50;;
30020;SDS011;16861;52.294;7.760;2022-12-13T01:38:53;44.40;;;22.58;;
30020;SDS011;16861;52.294;7.760;2022-12-13T01:41:23;43.83;;;22.13;;
30020;SDS011;16861;52.294;7.760;2022-12-13T01:43:53;45.28;;;20.70;;
30020;SDS011;16861;52.294;7.760;2022-12-13T01:46:26;41.30;;;19.90;;
30020;SDS011;16861;52.294;7.760;2022-12-13T01:48:55;45.28;;;22.05;;
30020;SDS011;16861;52.294;7.760;2022-12-13T01:51:55;47.05;;;21.88;;
30020;SDS011;16861;52.294;7.760;2022-12-13T01:54:31;45.00;;;21.77;;
30020;SDS011;16861;52.294;7.760;2022-12-13T01:57:02;51.13;;;23.25;;
30020;SDS011;16861;52.294;7.760;2022-12-13T01:59:35;46.30;;;22.75;;
30020;SDS011;16861;52.294;7.760;2022-12-13T02:02:04;51.65;;;23.17;;
30020;SDS011;16861;52.294;7.760;2022-12-13T02:04:33;45.78;;;24.35;;
30020;SDS011;16861;52.294;7.760;2022-12-13T02:07:10;45.70;;;22.50;;
30020;SDS011;16861;52.294;7.760;2022-12-13T02:09:49;49.40;;;23.13;;
30020;SDS011;16861;52.294;7.760;2022-12-13T02:12:21;49.50;;;23.30;;
30020;SDS011;16861;52.294;7.760;2022-12-13T02:14:55;50.75;;;23.45;;
30020;SDS011;16861;52.294;7.760;2022-12-13T02:20:40;40.83;;;21.30;;
30020;SDS011;16861;52.294;7.760;2022-12-13T02:26:30;41.88;;;20.20;;
30020;SDS011;16861;52.294;7.760;2022-12-13T02:32:26;41.58;;;20.17;;
30020;SDS011;16861;52.294;7.760;2022-12-13T02:37:45;40.90;;;20.77;;
30020;SDS011;16861;52.294;7.760;2022-12-13T02:40:33;45.33;;;21.98;;
30020;SDS011;16861;52.294;7.760;2022-12-13T02:43:08;37.40;;;19.95;;
30020;SDS011;16861;52.294;7.760;2022-12-13T02:45:50;42.45;;;20.17;;
30020;SDS011;16861;52.294;7.760;2022-12-13T02:48:24;43.03;;;21.27;;
30020;SDS011;16861;52.294;7.760;2022-12-13T02:50:54;45.83;;;21.83;;
30020;SDS011;16861;52.294;7.760;2022-12-13T02:53:23;42.63;;;21.13;;
30020;SDS011;16861;52.294;7.760;2022-12-13T02:55:51;41.13;;;20.17;;
30020;SDS011;16861;52.294;7.760;2022-12-13T02:58:19;39.35;;;20.42;;
30020;SDS011;16861;52.294;7.760;2022-12-13T03:06:45;41.25;;;19.38;;
30020;SDS011;16861;52.294;7.760;2022-12-13T03:09:27;44.28;;;21.95;;
30020;SDS011;16861;52.294;7.760;2022-12-13T03:12:13;46.13;;;22.42;;
30020;SDS011;16861;52.294;7.760;2022-12-13T03:15:29;50.90;;;23.13;;
30020;SDS011;16861;52.294;7.760;2022-12-13T03:20:53;44.17;;;22.45;;
30020;SDS011;16861;52.294;7.760;2022-12-13T03:23:23;48.45;;;23.27;;
30020;SDS011;16861;52.294;7.760;2022-12-13T03:25:50;43.70;;;21.58;;
30020;SDS011;16861;52.294;7.760;2022-12-13T03:28:20;39.83;;;19.73;;
30020;SDS011;16861;52.294;7.760;2022-12-13T03:30:46;43.92;;;20.52;;
30020;SDS011;16861;52.294;7.760;2022-12-13T03:33:13;40.22;;;20.52;;
30020;SDS011;16861;52.294;7.760;2022-12-13T03:35:40;44.03;;;20.75;;
30020;SDS011;16861;52.294;7.760;2022-12-13T03:38:11;45.95;;;21.23;;
30020;SDS011;16861;52.294;7.760;2022-12-13T03:40:48;48.63;;;22.90;;
30020;SDS011;16861;52.294;7.760;2022-12-13T03:45:49;51.40;;;22.08;;
30020;SDS011;16861;52.294;7.760;2022-12-13T03:48:16;48.10;;;23.60;;
30020;SDS011;16861;52.294;7.760;2022-12-13T03:50:48;33.00;;;16.90;;
30020;SDS011;16861;52.294;7.760;2022-12-13T03:53:15;43.55;;;22.75;;
30020;SDS011;16861;52.294;7.760;2022-12-13T03:55:59;43.42;;;20.55;;
30020;SDS011;16861;52.294;7.760;2022-12-13T03:58:28;48.67;;;23.45;;
30020;SDS011;16861;52.294;7.760;2022-12-13T04:01:02;43.75;;;21.75;;
30020;SDS011;16861;52.294;7.760;2022-12-13T04:03:29;47.30;;;21.70;;
30020;SDS011;16861;52.294;7.760;2022-12-13T04:05:56;43.97;;;21.63;;
30020;SDS011;16861;52.294;7.760;2022-12-13T04:08:22;47.28;;;23.08;;
30020;SDS011;16861;52.294;7.760;2022-12-13T04:10:49;45.78;;;21.58;;
30020;SDS011;16861;52.294;7.760;2022-12-13T04:13:15;41.70;;;21.98;;
30020;SDS011;16861;52.294;7.760;2022-12-13T04:16:00;42.03;;;20.85;;
30020;SDS011;16861;52.294;7.760;2022-12-13T04:18:28;41.35;;;20.70;;
30020;SDS011;16861;52.294;7.760;2022-12-13T04:20:54;39.10;;;20.13;;
30020;SDS011;16861;52.294;7.760;2022-12-13T04:23:22;43.40;;;21.52;;
30020;SDS011;16861;52.294;7.760;2022-12-13T04:25:49;47.45;;;22.33;;
30020;SDS011;16861;52.294;7.760;2022-12-13T04:28:16;49.88;;;23.15;;
30020;SDS011;16861;52.294;7.760;2022-12-13T04:30:48;54.70;;;23.60;;
30020;SDS011;16861;52.294;7.760;2022-12-13T04:33:19;47.30;;;23.42;;
30020;SDS011;16861;52.294;7.760;2022-12-13T04:35:49;49.83;;;23.50;;
30020;SDS011;16861;52.294;7.760;2022-12-13T04:38:15;46.03;;;21.95;;
30020;SDS011;16861;52.294;7.760;2022-12-13T04:40:42;55.58;;;23.42;;
30020;SDS011;16861;52.294;7.760;2022-12-13T04:43:09;44.50;;;23.30;;
30020;SDS011;16861;52.294;7.760;2022-12-13T04:45:35;45.25;;;22.55;;
30020;SDS011;16861;52.294;7.760;2022-12-13T04:48:02;43.85;;;21.33;;
30020;SDS011;16861;52.294;7.760;2022-12-13T04:50:28;47.53;;;22.00;;
30020;SDS011;16861;52.294;7.760;2022-12-13T04:52:55;39.83;;;19.95;;
30020;SDS011;16861;52.294;7.760;2022-12-13T04:55:21;40.17;;;21.38;;
30020;SDS011;16861;52.294;7.760;2022-12-13T04:57:48;46.53;;;23.08;;
30020;SDS011;16861;52.294;7.760;2022-12-13T05:00:14;50.78;;;23.10;;
30020;SDS011;16861;52.294;7.760;2022-12-13T05:02:41;46.50;;;22.23;;
30020;SDS011;16861;52.294;7.760;2022-12-13T05:05:08;46.13;;;21.83;;
30020;SDS011;16861;52.294;7.760;2022-12-13T05:07:36;46.33;;;22.80;;
30020;SDS011;16861;52.294;7.760;2022-12-13T05:10:08;47.30;;;22.30;;
30020;SDS011;16861;52.294;7.760;2022-12-13T05:12:35;51.33;;;21.73;;
30020;SDS011;16861;52.294;7.760;2022-12-13T05:15:02;47.58;;;22.30;;
30020;SDS011;16861;52.294;7.760;2022-12-13T05:17:29;44.75;;;20.80;;
30020;SDS011;16861;52.294;7.760;2022-12-13T05:19:55;53.60;;;21.95;;
30020;SDS011;16861;52.294;7.760;2022-12-13T05:22:22;46.72;;;20.77;;
30020;SDS011;16861;52.294;7.760;2022-12-13T05:24:48;43.83;;;19.63;;
30020;SDS011;16861;52.294;7.760;2022-12-13T05:27:15;47.58;;;21.05;;
30020;SDS011;16861;52.294;7.760;2022-12-13T05:29:51;39.92;;;19.63;;
30020;SDS011;16861;52.294;7.760;2022-12-13T05:32:30;44.47;;;19.02;;
30020;SDS011;16861;52.294;7.760;2022-12-13T05:35:09;40.50;;;19.95;;
30020;SDS011;16861;52.294;7.760;2022-12-13T05:37:48;46.95;;;20.40;;
30020;SDS011;16861;52.294;7.760;2022-12-13T05:40:20;42.88;;;20.55;;
30020;SDS011;16861;52.294;7.760;2022-12-13T05:42:48;46.03;;;20.42;;
30020;SDS011;16861;52.294;7.760;2022-12-13T05:45:14;41.90;;;20.02;;
30020;SDS011;16861;52.294;7.760;2022-12-13T05:47:43;54.25;;;24.13;;
30020;SDS011;16861;52.294;7.760;2022-12-13T05:50:11;47.53;;;21.90;;
30020;SDS011;16861;52.294;7.760;2022-12-13T05:52:38;45.55;;;22.02;;
30020;SDS011;16861;52.294;7.760;2022-12-13T05:55:05;45.35;;;21.35;;
30020;SDS011;16861;52.294;7.760;2022-12-13T05:57:32;47.50;;;22.23;;
30020;SDS011;16861;52.294;7.760;2022-12-13T05:59:59;43.78;;;22.33;;
30020;SDS011;16861;52.294;7.760;2022-12-13T06:02:26;48.38;;;22.13;;
30020;SDS011;16861;52.294;7.760;2022-12-13T06:04:52;53.45;;;23.95;;
30020;SDS011;16861;52.294;7.760;2022-12-13T06:07:20;47.17;;;23.50;;
30020;SDS011;16861;52.294;7.760;2022-12-13T06:09:46;48.60;;;22.85;;
30020;SDS011;16861;52.294;7.760;2022-12-13T06:12:13;51.15;;;23.63;;
30020;SDS011;16861;52.294;7.760;2022-12-13T06:14:57;49.13;;;21.98;;
30020;SDS011;16861;52.294;7.760;2022-12-13T06:17:30;47.03;;;22.45;;
30020;SDS011;16861;52.294;7.760;2022-12-13T06:20:01;44.85;;;22.17;;
30020;SDS011;16861;52.294;7.760;2022-12-13T06:22:49;43.85;;;21.23;;
30020;SDS011;16861;52.294;7.760;2022-12-13T06:25:15;43.05;;;22.27;;
30020;SDS011;16861;52.294;7.760;2022-12-13T06:27:57;43.80;;;22.05;;
30020;SDS011;16861;52.294;7.760;2022-12-13T06:30:30;45.67;;;20.10;;
30020;SDS011;16861;52.294;7.760;2022-12-13T06:32:57;42.75;;;22.77;;
30020;SDS011;16861;52.294;7.760;2022-12-13T06:35:24;42.05;;;21.88;;
30020;SDS011;16861;52.294;7.760;2022-12-13T06:37:54;45.65;;;22.10;;
30020;SDS011;16861;52.294;7.760;2022-12-13T06:40:30;42.42;;;21.15;;
30020;SDS011;16861;52.294;7.760;2022-12-13T06:42:57;39.33;;;20.23;;
30020;SDS011;16861;52.294;7.760;2022-12-13T06:45:23;48.63;;;21.38;;
30020;SDS011;16861;52.294;7.760;2022-12-13T06:47:50;49.53;;;22.30;;
30020;SDS011;16861;52.294;7.760;2022-12-13T06:50:17;45.88;;;22.63;;
30020;SDS011;16861;52.294;7.760;2022-12-13T06:52:47;42.97;;;21.38;;
30020;SDS011;16861;52.294;7.760;2022-12-13T06:55:13;44.40;;;22.85;;
30020;SDS011;16861;52.294;7.760;2022-12-13T06:57:49;39.70;;;20.90;;
30020;SDS011;16861;52.294;7.760;2022-12-13T07:00:16;45.17;;;21.25;;
30020;SDS011;16861;52.294;7.760;2022-12-13T07:02:54;45.10;;;21.90;;
30020;SDS011;16861;52.294;7.760;2022-12-13T07:05:21;42.30;;;21.33;;
30020;SDS011;16861;52.294;7.760;2022-12-13T07:07:47;39.55;;;19.17;;
30020;SDS011;16861;52.294;7.760;2022-12-13T07:10:14;43.17;;;19.55;;
30020;SDS011;16861;52.294;7.760;2022-12-13T07:12:48;35.85;;;19.25;;
30020;SDS011;16861;52.294;7.760;2022-12-13T07:15:15;38.85;;;19.65;;
30020;SDS011;16861;52.294;7.760;2022-12-13T07:17:41;42.10;;;19.23;;
30020;SDS011;16861;52.294;7.760;2022-12-13T07:20:08;37.17;;;18.70;;
30020;SDS011;16861;52.294;7.760;2022-12-13T07:22:36;44.13;;;21.02;;
30020;SDS011;16861;52.294;7.760;2022-12-13T07:25:12;44.55;;;20.48;;
30020;SDS011;16861;52.294;7.760;2022-12-13T07:27:54;39.80;;;19.98;;
30020;SDS011;16861;52.294;7.760;2022-12-13T07:30:28;37.72;;;19.30;;
30020;SDS011;16861;52.294;7.760;2022-12-13T07:32:55;36.92;;;17.77;;
30020;SDS011;16861;52.294;7.760;2022-12-13T07:35:22;38.47;;;18.25;;
30020;SDS011;16861;52.294;7.760;2022-12-13T07:37:48;41.00;;;18.65;;
30020;SDS011;16861;52.294;7.760;2022-12-13T07:40:14;37.60;;;18.55;;
30020;SDS011;16861;52.294;7.760;2022-12-13T07:42:41;39.33;;;20.02;;
30020;SDS011;16861;52.294;7.760;2022-12-13T07:45:14;35.45;;;19.15;;
30020;SDS011;16861;52.294;7.760;2022-12-13T07:47:41;35.40;;;18.35;;
30020;SDS011;16861;52.294;7.760;2022-12-13T07:50:07;38.45;;;18.85;;
30020;SDS011;16861;52.294;7.760;2022-12-13T07:52:50;36.28;;;18.23;;
30020;SDS011;16861;52.294;7.760;2022-12-13T07:55:17;40.55;;;20.70;;
30020;SDS011;16861;52.294;7.760;2022-12-13T07:57:48;35.38;;;18.25;;
30020;SDS011;16861;52.294;7.760;2022-12-13T08:00:15;38.42;;;18.50;;
30020;SDS011;16861;52.294;7.760;2022-12-13T08:02:41;35.30;;;17.80;;
30020;SDS011;16861;52.294;7.760;2022-12-13T08:05:08;35.10;;;17.67;;
30020;SDS011;16861;52.294;7.760;2022-12-13T08:07:52;37.08;;;18.40;;
30020;SDS011;16861;52.294;7.760;2022-12-13T08:10:19;37.88;;;18.50;;
30020;SDS011;16861;52.294;7.760;2022-12-13T08:12:45;36.75;;;19.02;;
30020;SDS011;16861;52.294;7.760;2022-12-13T08:15:12;33.25;;;18.33;;
30020;SDS011;16861;52.294;7.760;2022-12-13T08:17:39;41.20;;;21.40;;
30020;SDS011;16861;52.294;7.760;2022-12-13T08:20:06;39.50;;;21.35;;
30020;SDS011;16861;52.294;7.760;2022-12-13T08:22:33;37.03;;;20.15;;
30020;SDS011;16861;52.294;7.760;2022-12-13T08:25:01;37.90;;;18.67;;
30020;SDS011;16861;52.294;7.760;2022-12-13T08:27:28;38.17;;;19.33;;
30020;SDS011;16861;52.294;7.760;2022-12-13T08:29:54;36.78;;;18.63;;
30020;SDS011;16861;52.294;7.760;2022-12-13T08:32:21;41.58;;;19.60;;
30020;SDS011;16861;52.294;7.760;2022-12-13T08:34:48;40.30;;;21.50;;
30020;SDS011;16861;52.294;7.760;2022-12-13T08:37:15;36.50;;;18.60;;
30020;SDS011;16861;52.294;7.760;2022-12-13T08:39:41;33.63;;;18.75;;
30020;SDS011;16861;52.294;7.760;2022-12-13T08:42:10;39.17;;;19.73;;
30020;SDS011;16861;52.294;7.760;2022-12-13T08:44:44;40.28;;;19.38;;
30020;SDS011;16861;52.294;7.760;2022-12-13T08:47:11;36.63;;;18.50;;
30020;SDS011;16861;52.294;7.760;2022-12-13T08:49:48;35.50;;;17.83;;
30020;SDS011;16861;52.294;7.760;2022-12-13T08:52:15;35.15;;;18.90;;
30020;SDS011;16861;52.294;7.760;2022-12-13T08:54:41;39.42;;;19.77;;
30020;SDS011;16861;52.294;7.760;2022-12-13T08:57:09;35.13;;;18.42;;
30020;SDS011;16861;52.294;7.760;2022-12-13T08:59:35;35.22;;;18.40;;
30020;SDS011;16861;52.294;7.760;2022-12-13T09:02:02;39.13;;;19.33;;
30020;SDS011;16861;52.294;7.760;2022-12-13T09:04:30;36.80;;;19.35;;
30020;SDS011;16861;52.294;7.760;2022-12-13T09:06:57;35.88;;;18.80;;
30020;SDS011;16861;52.294;7.760;2022-12-13T09:09:27;40.10;;;18.52;;
30020;SDS011;16861;52.294;7.760;2022-12-13T09:11:54;39.97;;;19.10;;
30020;SDS011;16861;52.294;7.760;2022-12-13T09:14:25;34.72;;;18.60;;
30020;SDS011;16861;52.294;7.760;2022-12-13T09:16:59;40.80;;;19.23;;
30020;SDS011;16861;52.294;7.760;2022-12-13T09:19:28;39.78;;;20.20;;
30020;SDS011;16861;52.294;7.760;2022-12-13T09:22:02;35.47;;;18.80;;
30020;SDS011;16861;52.294;7.760;2022-12-13T09:24:29;35.55;;;18.25;;
30020;SDS011;16861;52.294;7.760;2022-12-13T09:29:35;34.00;;;16.55;;
30020;SDS011;16861;52.294;7.760;2022-12-13T09:32:02;33.35;;;18.40;;
30020;SDS011;16861;52.294;7.760;2022-12-13T09:34:28;38.40;;;18.58;;
30020;SDS011;16861;52.294;7.760;2022-12-13T09:36:55;35.83;;;18.98;;
30020;SDS011;16861;52.294;7.760;2022-12-13T09:39:26;26.45;;;13.98;;
30020;SDS011;16861;52.294;7.760;2022-12-13T09:41:55;42.72;;;21.30;;
30020;SDS011;16861;52.294;7.760;2022-12-13T09:44:27;39.33;;;21.25;;
30020;SDS011;16861;52.294;7.760;2022-12-13T09:47:13;36.08;;;19.20;;
30020;SDS011;16861;52.294;7.760;2022-12-13T09:50:00;38.45;;;20.95;;
30020;SDS011;16861;52.294;7.760;2022-12-13T09:52:35;37.97;;;20.80;;
30020;SDS011;16861;52.294;7.760;2022-12-13T09:55:04;37.72;;;20.42;;
30020;SDS011;16861;52.294;7.760;2022-12-13T09:57:44;42.30;;;21.35;;
30020;SDS011;16861;52.294;7.760;2022-12-13T10:00:12;41.13;;;21.55;;
30020;SDS011;16861;52.294;7.760;2022-12-13T10:02:45;36.95;;;19.63;;
30020;SDS011;16861;52.294;7.760;2022-12-13T10:05:15;39.78;;;21.45;;
30020;SDS011;16861;52.294;7.760;2022-12-13T10:07:49;38.70;;;20.70;;
30020;SDS011;16861;52.294;7.760;2022-12-13T10:10:18;37.13;;;20.55;;
30020;SDS011;16861;52.294;7.760;2022-12-13T10:12:45;35.15;;;19.92;;
30020;SDS011;16861;52.294;7.760;2022-12-13T10:15:18;43.28;;;20.98;;
30020;SDS011;16861;52.294;7.760;2022-12-13T10:17:47;37.53;;;20.05;;
30020;SDS011;16861;52.294;7.760;2022-12-13T10:20:21;43.58;;;22.50;;
30020;SDS011;16861;52.294;7.760;2022-12-13T10:22:53;44.45;;;21.55;;
30020;SDS011;16861;52.294;7.760;2022-12-13T10:25:46;40.92;;;21.23;;
30020;SDS011;16861;52.294;7.760;2022-12-13T10:28:17;38.35;;;21.02;;
30020;SDS011;16861;52.294;7.760;2022-12-13T10:30:49;39.38;;;19.15;;
30020;SDS011;16861;52.294;7.760;2022-12-13T10:33:20;37.88;;;20.77;;
30020;SDS011;16861;52.294;7.760;2022-12-13T10:38:33;38.88;;;20.25;;
30020;SDS011;16861;52.294;7.760;2022-12-13T10:41:04;37.67;;;18.88;;
30020;SDS011;16861;52.294;7.760;2022-12-13T10:46:33;39.15;;;19.50;;
30020;SDS011;16861;52.294;7.760;2022-12-13T10:49:11;35.75;;;19.48;;
30020;SDS011;16861;52.294;7.760;2022-12-13T10:51:41;36.25;;;19.30;;
30020;SDS011;16861;52.294;7.760;2022-12-13T10:57:04;35.22;;;18.42;;
30020;SDS011;16861;52.294;7.760;2022-12-13T10:59:33;36.47;;;19.27;;
30020;SDS011;16861;52.294;7.760;2022-12-13T11:04:52;32.97;;;17.83;;
30020;SDS011;16861;52.294;7.760;2022-12-13T11:07:22;32.38;;;18.45;;
30020;SDS011;16861;52.294;7.760;2022-12-13T11:09:49;38.67;;;20.05;;
30020;SDS011;16861;52.294;7.760;2022-12-13T11:12:22;35.85;;;18.75;;
30020;SDS011;16861;52.294;7.760;2022-12-13T11:14:54;35.67;;;19.95;;
30020;SDS011;16861;52.294;7.760;2022-12-13T11:17:25;31.77;;;19.20;;
30020;SDS011;16861;52.294;7.760;2022-12-13T11:19:56;34.58;;;19.25;;
30020;SDS011;16861;52.294;7.760;2022-12-13T11:22:33;33.45;;;19.95;;
30020;SDS011;16861;52.294;7.760;2022-12-13T11:30:31;25.55;;;17.85;;
30020;SDS011;16861;52.294;7.760;2022-12-13T11:36:01;25.05;;;17.63;;
30020;SDS011;16861;52.294;7.760;2022-12-13T11:38:48;24.73;;;16.85;;
30020;SDS011;16861;52.294;7.760;2022-12-13T11:41:30;24.33;;;17.45;;
30020;SDS011;16861;52.294;7.760;2022-12-13T11:44:03;23.05;;;17.45;;
30020;SDS011;16861;52.294;7.760;2022-12-13T11:46:42;24.30;;;16.90;;
30020;SDS011;16861;52.294;7.760;2022-12-13T11:49:15;22.42;;;16.70;;
30020;SDS011;16861;52.294;7.760;2022-12-13T11:51:51;25.35;;;17.88;;
30020;SDS011;16861;52.294;7.760;2022-12-13T11:54:25;24.23;;;16.30;;
30020;SDS011;16861;52.294;7.760;2022-12-13T11:57:12;21.00;;;16.85;;
30020;SDS011;16861;52.294;7.760;2022-12-13T11:59:46;20.40;;;16.27;;
30020;SDS011;16861;52.294;7.760;2022-12-13T12:02:32;21.25;;;15.70;;
30020;SDS011;16861;52.294;7.760;2022-12-13T12:05:02;19.23;;;16.08;;
30020;SDS011;16861;52.294;7.760;2022-12-13T12:07:33;22.45;;;16.48;;
30020;SDS011;16861;52.294;7.760;2022-12-13T12:10:32;21.58;;;17.27;;
30020;SDS011;16861;52.294;7.760;2022-12-13T12:13:22;18.95;;;14.57;;
30020;SDS011;16861;52.294;7.760;2022-12-13T12:16:07;19.92;;;15.20;;
30020;SDS011;16861;52.294;7.760;2022-12-13T12:18:40;17.67;;;13.98;;
30020;SDS011;16861;52.294;7.760;2022-12-13T12:21:19;20.33;;;14.82;;
30020;SDS011;16861;52.294;7.760;2022-12-13T12:29:45;20.35;;;15.68;;
30020;SDS011;16861;52.294;7.760;2022-12-13T12:32:35;20.00;;;15.98;;
30020;SDS011;16861;52.294;7.760;2022-12-13T12:41:16;21.98;;;15.98;;
30020;SDS011;16861;52.294;7.760;2022-12-13T12:44:50;20.73;;;16.25;;
30020;SDS011;16861;52.294;7.760;2022-12-13T12:53:06;20.48;;;15.32;;
30020;SDS011;16861;52.294;7.760;2022-12-13T13:03:29;20.98;;;14.63;;
30020;SDS011;16861;52.294;7.760;2022-12-13T13:06:03;21.00;;;15.43;;
30020;SDS011;16861;52.294;7.760;2022-12-13T13:08:36;19.50;;;13.88;;
30020;SDS011;16861;52.294;7.760;2022-12-13T13:11:18;20.08;;;14.15;;
30020;SDS011;16861;52.294;7.760;2022-12-13T13:16:55;21.75;;;14.05;;
30020;SDS011;16861;52.294;7.760;2022-12-13T13:21:58;23.08;;;14.38;;
30020;SDS011;16861;52.294;7.760;2022-12-13T13:24:33;22.23;;;14.52;;
30020;SDS011;16861;52.294;7.760;2022-12-13T13:29:39;20.67;;;13.70;;
30020;SDS011;16861;52.294;7.760;2022-12-13T13:40:41;22.25;;;14.07;;
30020;SDS011;16861;52.294;7.760;2022-12-13T13:54:38;23.10;;;14.68;;
30020;SDS011;16861;52.294;7.760;2022-12-13T14:24:26;22.88;;;14.07;;
30020;SDS011;16861;52.294;7.760;2022-12-13T14:27:16;24.40;;;14.75;;
30020;SDS011;16861;52.294;7.760;2022-12-13T14:29:46;23.80;;;14.23;;
30020;SDS011;16861;52.294;7.760;2022-12-13T14:32:24;23.58;;;13.65;;
30020;SDS011;16861;52.294;7.760;2022-12-13T14:34:57;23.58;;;14.00;;
30020;SDS011;16861;52.294;7.760;2022-12-13T14:37:51;23.00;;;13.43;;
30020;SDS011;16861;52.294;7.760;2022-12-13T14:40:27;23.42;;;13.43;;
30020;SDS011;16861;52.294;7.760;2022-12-13T14:43:01;23.52;;;14.38;;
30020;SDS011;16861;52.294;7.760;2022-12-13T14:45:36;20.65;;;13.32;;
30020;SDS011;16861;52.294;7.760;2022-12-13T14:48:11;24.25;;;15.30;;
30020;SDS011;16861;52.294;7.760;2022-12-13T14:50:54;24.40;;;14.80;;
30020;SDS011;16861;52.294;7.760;2022-12-13T14:53:22;25.63;;;15.52;;
30020;SDS011;16861;52.294;7.760;2022-12-13T14:58:31;23.88;;;14.13;;
30020;SDS011;16861;52.294;7.760;2022-12-13T15:00:58;25.15;;;15.05;;
30020;SDS011;16861;52.294;7.760;2022-12-13T15:03:26;24.88;;;14.95;;
30020;SDS011;16861;52.294;7.760;2022-12-13T15:05:55;25.10;;;14.55;;
30020;SDS011;16861;52.294;7.760;2022-12-13T15:08:23;23.40;;;13.88;;
30020;SDS011;16861;52.294;7.760;2022-12-13T15:10:59;22.17;;;14.30;;
30020;SDS011;16861;52.294;7.760;2022-12-13T15:13:37;26.70;;;15.32;;
30020;SDS011;16861;52.294;7.760;2022-12-13T15:16:26;24.55;;;13.57;;
30020;SDS011;16861;52.294;7.760;2022-12-13T15:22:01;25.13;;;14.43;;
30020;SDS011;16861;52.294;7.760;2022-12-13T15:27:20;22.45;;;13.40;;
30020;SDS011;16861;52.294;7.760;2022-12-13T15:29:54;31.60;;;17.15;;
30020;SDS011;16861;52.294;7.760;2022-12-13T15:32:22;26.00;;;14.57;;
30020;SDS011;16861;52.294;7.760;2022-12-13T15:37:43;28.63;;;16.38;;
30020;SDS011;16861;52.294;7.760;2022-12-13T15:40:11;27.88;;;16.38;;
30020;SDS011;16861;52.294;7.760;2022-12-13T15:42:42;30.27;;;17.58;;
30020;SDS011;16861;52.294;7.760;2022-12-13T15:47:46;26.05;;;15.77;;
30020;SDS011;16861;52.294;7.760;2022-12-13T15:53:18;31.35;;;15.60;;
30020;SDS011;16861;52.294;7.760;2022-12-13T15:58:26;34.65;;;17.83;;
30020;SDS011;16861;52.294;7.760;2022-12-13T16:00:56;30.02;;;17.20;;
30020;SDS011;16861;52.294;7.760;2022-12-13T16:06:29;34.17;;;18.45;;
30020;SDS011;16861;52.294;7.760;2022-12-13T16:09:01;33.30;;;17.20;;
30020;SDS011;16861;52.294;7.760;2022-12-13T16:11:31;35.58;;;17.90;;
30020;SDS011;16861;52.294;7.760;2022-12-13T16:17:09;36.53;;;18.23;;
30020;SDS011;16861;52.294;7.760;2022-12-13T16:19:41;40.10;;;18.65;;
30020;SDS011;16861;52.294;7.760;2022-12-13T16:22:08;41.95;;;19.15;;
30020;SDS011;16861;52.294;7.760;2022-12-13T16:24:35;42.30;;;20.80;;
30020;SDS011;16861;52.294;7.760;2022-12-13T16:27:02;38.17;;;19.10;;
30020;SDS011;16861;52.294;7.760;2022-12-13T16:29:34;39.65;;;19.90;;
30020;SDS011;16861;52.294;7.760;2022-12-13T16:32:00;43.28;;;20.95;;
30020;SDS011;16861;52.294;7.760;2022-12-13T16:34:34;35.30;;;19.38;;
30020;SDS011;16861;52.294;7.760;2022-12-13T16:37:04;36.20;;;20.02;;
30020;SDS011;16861;52.294;7.760;2022-12-13T16:39:51;37.97;;;19.75;;
30020;SDS011;16861;52.294;7.760;2022-12-13T16:42:19;39.33;;;20.40;;
30020;SDS011;16861;52.294;7.760;2022-12-13T16:44:51;40.60;;;20.45;;
30020;SDS011;16861;52.294;7.760;2022-12-13T16:47:37;38.55;;;19.50;;
30020;SDS011;16861;52.294;7.760;2022-12-13T16:50:14;37.40;;;19.33;;
30020;SDS011;16861;52.294;7.760;2022-12-13T16:52:45;36.53;;;19.38;;
30020;SDS011;16861;52.294;7.760;2022-12-13T16:55:14;41.95;;;20.23;;
30020;SDS011;16861;52.294;7.760;2022-12-13T17:00:26;39.70;;;19.55;;
30020;SDS011;16861;52.294;7.760;2022-12-13T17:02:55;43.35;;;18.95;;
30020;SDS011;16861;52.294;7.760;2022-12-13T17:05:23;38.67;;;19.63;;
30020;SDS011;16861;52.294;7.760;2022-12-13T17:07:57;43.42;;;20.48;;
30020;SDS011;16861;52.294;7.760;2022-12-13T17:10:24;36.00;;;18.77;;
30020;SDS011;16861;52.294;7.760;2022-12-13T17:15:28;39.90;;;20.13;;
30020;SDS011;16861;52.294;7.760;2022-12-13T17:17:55;42.92;;;21.50;;
30020;SDS011;16861;52.294;7.760;2022-12-13T17:20:21;38.15;;;19.75;;
30020;SDS011;16861;52.294;7.760;2022-12-13T17:22:48;37.33;;;18.83;;